createdAt,value
2022-09-10T00:02:45.539Z,15.92
2022-09-10T00:08:18.463Z,15.85
2022-09-10T00:13:50.783Z,15.82
2022-09-10T00:19:22.599Z,15.78
2022-09-10T00:25:00.090Z,15.86
2022-09-10T00:30:31.219Z,15.89
2022-09-10T00:36:05.863Z,15.84
2022-09-10T00:41:40.075Z,15.85
2022-09-10T00:47:20.825Z,15.84
2022-09-10T00:52:54.203Z,15.82
2022-09-10T00:58:26.202Z,15.79
2022-09-10T01:03:57.229Z,15.79
2022-09-10T01:09:29.290Z,15.79
2022-09-10T01:15:41.247Z,15.66
2022-09-10T01:21:18.063Z,15.67
2022-09-10T01:27:01.911Z,15.66
2022-09-10T01:32:35.128Z,15.61
2022-09-10T01:38:12.319Z,15.60
2022-09-10T01:43:43.778Z,15.61
2022-09-10T01:50:08.918Z,15.60
2022-09-10T01:56:13.632Z,15.61
2022-09-10T02:01:54.729Z,15.60
2022-09-10T02:07:27.013Z,15.60
2022-09-10T02:12:59.122Z,15.59
2022-09-10T02:18:45.482Z,15.58
2022-09-10T02:24:16.587Z,15.55
2022-09-10T02:29:47.895Z,15.55
2022-09-10T02:35:19.335Z,15.55
2022-09-10T02:40:51.934Z,15.54
2022-09-10T02:46:23.259Z,15.56
2022-09-10T02:51:55.300Z,15.54
2022-09-10T02:57:28.125Z,15.53
2022-09-10T03:03:03.203Z,15.51
2022-09-10T03:08:35.495Z,15.48
2022-09-10T03:14:10.428Z,15.47
2022-09-10T03:19:42.301Z,15.44
2022-09-10T03:25:13.524Z,15.42
2022-09-10T03:30:44.893Z,15.39
2022-09-10T03:36:18.390Z,15.38
2022-09-10T03:41:52.360Z,15.37
2022-09-10T03:47:24.205Z,15.38
2022-09-10T03:52:57.223Z,15.38
2022-09-10T03:58:29.252Z,15.37
2022-09-10T04:04:03.412Z,15.36
2022-09-10T04:09:35.127Z,15.37
2022-09-10T04:15:07.573Z,15.34
2022-09-10T04:20:39.160Z,15.33
2022-09-10T04:26:15.441Z,15.30
2022-09-10T04:31:48.600Z,15.26
2022-09-10T04:37:22.682Z,15.26
2022-09-10T04:42:53.742Z,15.26
2022-09-10T04:48:26.639Z,15.27
2022-09-10T04:54:00.360Z,15.28
2022-09-10T04:59:35.955Z,15.26
2022-09-10T05:05:07.770Z,15.25
2022-09-10T05:10:39.159Z,15.22
2022-09-10T05:16:12.408Z,15.23
2022-09-10T05:21:46.517Z,15.21
2022-09-10T05:27:17.742Z,15.19
2022-09-10T05:32:53.555Z,15.19
2022-09-10T05:38:25.245Z,15.16
2022-09-10T05:43:58.283Z,15.16
2022-09-10T05:49:31.102Z,15.14
2022-09-10T05:55:06.077Z,15.14
2022-09-10T06:00:37.811Z,15.02
2022-09-10T06:06:10.135Z,14.86
2022-09-10T10:23:32.880Z,17.12
2022-09-10T10:29:17.803Z,17.16
2022-09-10T10:35:16.852Z,17.18
2022-09-10T10:41:21.478Z,17.18
2022-09-10T10:46:58.664Z,17.20
2022-09-10T10:52:38.891Z,17.26
2022-09-10T10:58:27.968Z,17.27
2022-09-10T11:04:23.205Z,17.27
2022-09-10T11:10:12.843Z,17.24
2022-09-10T11:15:44.793Z,17.21
2022-09-10T11:21:32.192Z,17.25
2022-09-10T11:27:07.166Z,17.26
2022-09-10T11:33:18.585Z,17.28
2022-09-10T11:39:17.458Z,17.34
2022-09-10T11:45:09.065Z,17.38
2022-09-10T11:50:57.468Z,17.43
2022-09-10T11:57:00.868Z,17.48
2022-09-10T12:03:10.172Z,17.53
2022-09-10T12:09:05.949Z,17.60
2022-09-10T12:14:39.693Z,17.62
2022-09-10T12:20:19.148Z,17.65
2022-09-10T12:25:58.271Z,17.67
2022-09-10T12:32:07.764Z,17.71
2022-09-10T12:37:39.198Z,17.71
2022-09-10T12:43:41.512Z,17.71
2022-09-10T12:49:13.580Z,17.67
2022-09-10T12:55:12.552Z,17.59
2022-09-10T13:00:56.138Z,17.53
2022-09-10T13:06:39.874Z,17.51
2022-09-10T13:12:17.639Z,17.50
2022-09-10T13:17:48.618Z,17.46
2022-09-10T13:23:24.193Z,17.42
2022-09-10T13:28:55.414Z,17.44
2022-09-10T13:34:53.824Z,17.51
2022-09-10T13:40:33.794Z,17.49
2022-09-10T13:46:19.827Z,17.52
2022-09-10T13:51:57.037Z,17.50
2022-09-10T13:57:33.296Z,17.40
2022-09-10T14:03:14.836Z,17.47
2022-09-10T14:09:12.555Z,17.60
2022-09-10T14:14:47.350Z,17.71
2022-09-10T14:20:25.427Z,17.77
2022-09-10T14:26:13.002Z,17.78
2022-09-10T14:31:44.094Z,17.70
2022-09-10T14:37:43.375Z,17.59
2022-09-10T14:43:16.514Z,17.50
2022-09-10T14:49:00.568Z,17.38
2022-09-10T14:54:33.922Z,17.28
2022-09-10T15:00:30.381Z,17.20
2022-09-10T15:06:01.555Z,17.15
2022-09-10T15:11:32.746Z,17.12
2022-09-10T15:17:04.547Z,17.06
2022-09-10T15:22:36.082Z,17.03
2022-09-10T15:28:07.821Z,17.01
2022-09-10T15:33:40.249Z,16.96
2022-09-10T15:39:13.179Z,16.89
2022-09-10T15:44:44.712Z,16.83
2022-09-10T15:50:16.409Z,16.80
2022-09-10T15:55:47.780Z,16.79
2022-09-10T16:01:19.454Z,16.76
2022-09-10T16:06:50.684Z,16.75
2022-09-10T16:12:28.543Z,16.76
2022-09-10T16:18:00.779Z,16.76
2022-09-10T16:23:34.462Z,16.77
2022-09-10T16:29:09.013Z,16.79
2022-09-10T16:34:40.633Z,16.78
2022-09-10T16:40:12.260Z,16.78
2022-09-10T16:45:51.082Z,16.72
2022-09-10T16:51:24.596Z,16.65
2022-09-10T16:56:56.139Z,16.62
2022-09-10T17:02:28.568Z,16.62
2022-09-10T17:08:03.006Z,16.67
2022-09-10T17:13:34.041Z,16.72
2022-09-10T17:19:14.546Z,16.77
2022-09-10T17:24:49.635Z,16.78
2022-09-10T17:30:22.240Z,16.78
2022-09-10T17:35:57.516Z,16.77
2022-09-10T17:41:29.932Z,16.78
2022-09-10T17:47:01.371Z,16.77
2022-09-10T17:52:32.399Z,16.73
2022-09-10T17:58:03.738Z,16.70
2022-09-10T18:03:35.774Z,16.65
2022-09-10T18:09:32.521Z,16.62
2022-09-10T18:15:04.216Z,16.60
2022-09-10T18:20:35.484Z,16.60
2022-09-10T18:26:17.747Z,16.56
2022-09-10T18:31:51.474Z,16.55
2022-09-10T18:37:22.756Z,16.56
2022-09-10T18:42:53.606Z,16.56
2022-09-10T18:48:25.331Z,16.52
2022-09-10T18:54:00.114Z,16.53
2022-09-10T18:59:31.114Z,16.51
2022-09-10T19:05:11.606Z,16.50
2022-09-10T19:10:43.732Z,16.48
2022-09-10T19:16:14.722Z,16.47
2022-09-10T19:21:52.068Z,16.46
2022-09-10T19:27:24.509Z,16.40
2022-09-10T19:32:56.348Z,16.38
2022-09-10T19:38:37.482Z,16.37
2022-09-10T19:44:12.588Z,16.36
2022-09-10T19:49:43.672Z,16.38
2022-09-10T19:55:15.256Z,16.42
2022-09-10T20:00:47.501Z,16.39
2022-09-10T20:06:21.392Z,16.38
2022-09-10T20:11:52.405Z,16.35
2022-09-10T20:17:24.358Z,16.31
2022-09-10T20:22:58.486Z,16.25
2022-09-10T20:28:30.091Z,16.19
2022-09-10T20:34:04.714Z,16.12
2022-09-10T20:39:36.534Z,16.06
2022-09-10T20:45:07.939Z,16.00
2022-09-10T20:50:39.513Z,15.97
2022-09-10T20:56:13.128Z,15.94
2022-09-10T21:01:46.418Z,15.90
2022-09-10T21:07:18.189Z,15.91
2022-09-10T21:12:49.444Z,15.89
2022-09-10T21:18:20.427Z,15.86
2022-09-10T21:24:02.464Z,15.82
2022-09-10T21:29:34.569Z,15.81
2022-09-10T21:35:06.212Z,15.80
2022-09-10T21:40:37.195Z,15.80
2022-09-10T21:46:09.380Z,15.75
2022-09-10T21:51:41.725Z,15.73
2022-09-10T21:57:13.238Z,15.70
2022-09-10T22:02:45.102Z,15.70
2022-09-10T22:08:16.469Z,15.68
2022-09-10T22:13:52.786Z,15.67
2022-09-10T22:19:25.999Z,15.67
2022-09-10T22:24:57.333Z,15.64
2022-09-10T22:30:28.249Z,15.61
2022-09-10T22:36:12.996Z,15.60
2022-09-10T22:41:45.225Z,15.57
2022-09-10T22:47:16.171Z,15.56
2022-09-10T22:52:47.233Z,15.55
2022-09-10T22:58:18.084Z,15.54
2022-09-10T23:03:49.498Z,15.54
2022-09-10T23:09:20.893Z,15.52
2022-09-10T23:14:52.514Z,15.50
2022-09-10T23:20:25.211Z,15.49
2022-09-10T23:25:57.086Z,15.47
2022-09-10T23:31:30.191Z,15.45
2022-09-10T23:37:01.614Z,15.43
2022-09-10T23:42:33.463Z,15.43
2022-09-10T23:48:05.250Z,15.42
2022-09-10T23:53:36.179Z,15.40
2022-09-10T23:59:06.901Z,15.40
